sensor_id;sensor_type;location;lat;lon;timestamp;temperature;humidity
13673;DHT22;6909;52.202;9.876;2022-09-09T00:02:13;14.40;99.90
13673;DHT22;6909;52.202;9.876;2022-09-09T00:04:51;14.40;99.90
13673;DHT22;6909;52.202;9.876;2022-09-09T00:07:21;14.40;99.90
13673;DHT22;6909;52.202;9.876;2022-09-09T00:09:57;14.30;99.90
13673;DHT22;6909;52.202;9.876;2022-09-09T00:12:33;14.20;99.90
13673;DHT22;6909;52.202;9.876;2022-09-09T00:15:05;14.20;99.90
13673;DHT22;6909;52.202;9.876;2022-09-09T00:17:37;14.40;99.90
13673;DHT22;6909;52.202;9.876;2022-09-09T00:20:12;14.30;99.90
13673;DHT22;6909;52.202;9.876;2022-09-09T00:22:42;14.30;99.90
13673;DHT22;6909;52.202;9.876;2022-09-09T00:25:12;14.30;99.90
13673;DHT22;6909;52.202;9.876;2022-09-09T00:27:45;14.30;99.90
13673;DHT22;6909;52.202;9.876;2022-09-09T00:30:17;14.20;99.90
13673;DHT22;6909;52.202;9.876;2022-09-09T00:32:45;14.20;99.90
13673;DHT22;6909;52.202;9.876;2022-09-09T00:35:17;14.10;99.90
13673;DHT22;6909;52.202;9.876;2022-09-09T00:37:46;14.10;99.90
13673;DHT22;6909;52.202;9.876;2022-09-09T00:40:22;14.20;99.90
13673;DHT22;6909;52.202;9.876;2022-09-09T00:42:52;14.20;99.90
13673;DHT22;6909;52.202;9.876;2022-09-09T00:45:40;14.20;99.90
13673;DHT22;6909;52.202;9.876;2022-09-09T00:48:10;14.20;99.90
13673;DHT22;6909;52.202;9.876;2022-09-09T00:50:45;14.20;99.90
13673;DHT22;6909;52.202;9.876;2022-09-09T00:53:27;14.30;99.90
13673;DHT22;6909;52.202;9.876;2022-09-09T00:56:08;14.30;99.90
13673;DHT22;6909;52.202;9.876;2022-09-09T00:58:37;14.30;99.90
13673;DHT22;6909;52.202;9.876;2022-09-09T01:01:09;14.20;99.90
13673;DHT22;6909;52.202;9.876;2022-09-09T01:03:38;14.10;99.90
13673;DHT22;6909;52.202;9.876;2022-09-09T01:06:16;13.90;99.90
13673;DHT22;6909;52.202;9.876;2022-09-09T01:09:02;13.80;99.90
13673;DHT22;6909;52.202;9.876;2022-09-09T01:11:36;13.70;99.90
13673;DHT22;6909;52.202;9.876;2022-09-09T01:14:14;13.70;99.90
13673;DHT22;6909;52.202;9.876;2022-09-09T01:16:45;13.60;99.90
13673;DHT22;6909;52.202;9.876;2022-09-09T01:19:23;13.60;99.90
13673;DHT22;6909;52.202;9.876;2022-09-09T01:21:59;13.60;99.90
13673;DHT22;6909;52.202;9.876;2022-09-09T01:24:35;13.40;99.90
13673;DHT22;6909;52.202;9.876;2022-09-09T01:27:09;13.40;99.90
13673;DHT22;6909;52.202;9.876;2022-09-09T01:29:37;13.50;99.90
13673;DHT22;6909;52.202;9.876;2022-09-09T01:32:38;13.50;99.90
13673;DHT22;6909;52.202;9.876;2022-09-09T01:35:08;13.60;99.90
13673;DHT22;6909;52.202;9.876;2022-09-09T01:37:37;13.70;99.90
13673;DHT22;6909;52.202;9.876;2022-09-09T01:40:04;13.70;99.90
13673;DHT22;6909;52.202;9.876;2022-09-09T01:42:32;13.60;99.90
13673;DHT22;6909;52.202;9.876;2022-09-09T01:44:59;13.50;99.90
13673;DHT22;6909;52.202;9.876;2022-09-09T01:47:26;13.40;99.90
13673;DHT22;6909;52.202;9.876;2022-09-09T01:49:53;13.20;99.90
13673;DHT22;6909;52.202;9.876;2022-09-09T01:52:20;13.00;99.90
13673;DHT22;6909;52.202;9.876;2022-09-09T01:54:47;12.90;99.90
13673;DHT22;6909;52.202;9.876;2022-09-09T01:57:18;12.90;99.90
13673;DHT22;6909;52.202;9.876;2022-09-09T01:59:55;12.90;99.90
13673;DHT22;6909;52.202;9.876;2022-09-09T02:02:30;12.90;99.90
13673;DHT22;6909;52.202;9.876;2022-09-09T02:05:06;13.00;99.90
13673;DHT22;6909;52.202;9.876;2022-09-09T02:07:39;13.10;99.90
13673;DHT22;6909;52.202;9.876;2022-09-09T02:10:10;13.10;99.90
13673;DHT22;6909;52.202;9.876;2022-09-09T02:12:41;13.20;99.90
13673;DHT22;6909;52.202;9.876;2022-09-09T02:15:17;13.30;99.90
13673;DHT22;6909;52.202;9.876;2022-09-09T02:17:46;13.30;99.90
13673;DHT22;6909;52.202;9.876;2022-09-09T02:20:16;13.30;99.90
13673;DHT22;6909;52.202;9.876;2022-09-09T02:22:46;13.40;99.90
13673;DHT22;6909;52.202;9.876;2022-09-09T02:25:18;13.40;99.90
13673;DHT22;6909;52.202;9.876;2022-09-09T02:27:47;13.30;99.90
13673;DHT22;6909;52.202;9.876;2022-09-09T02:30:17;13.30;99.90
13673;DHT22;6909;52.202;9.876;2022-09-09T02:32:46;13.30;99.90
13673;DHT22;6909;52.202;9.876;2022-09-09T02:35:17;13.30;99.90
13673;DHT22;6909;52.202;9.876;2022-09-09T02:37:45;13.30;99.90
13673;DHT22;6909;52.202;9.876;2022-09-09T02:40:13;13.40;99.90
13673;DHT22;6909;52.202;9.876;2022-09-09T02:42:42;13.50;99.90
13673;DHT22;6909;52.202;9.876;2022-09-09T02:45:11;13.40;99.90
13673;DHT22;6909;52.202;9.876;2022-09-09T02:47:44;13.50;99.90
13673;DHT22;6909;52.202;9.876;2022-09-09T02:50:18;13.50;99.90
13673;DHT22;6909;52.202;9.876;2022-09-09T02:52:55;13.50;99.90
13673;DHT22;6909;52.202;9.876;2022-09-09T02:55:36;13.60;99.90
13673;DHT22;6909;52.202;9.876;2022-09-09T02:58:05;13.60;99.90
13673;DHT22;6909;52.202;9.876;2022-09-09T03:00:34;13.70;99.90
13673;DHT22;6909;52.202;9.876;2022-09-09T03:03:03;13.80;99.90
13673;DHT22;6909;52.202;9.876;2022-09-09T03:05:30;13.90;99.90
13673;DHT22;6909;52.202;9.876;2022-09-09T03:07:58;14.00;99.90
13673;DHT22;6909;52.202;9.876;2022-09-09T03:10:24;14.10;99.90
13673;DHT22;6909;52.202;9.876;2022-09-09T03:12:51;14.20;99.90
13673;DHT22;6909;52.202;9.876;2022-09-09T03:15:18;14.30;99.90
13673;DHT22;6909;52.202;9.876;2022-09-09T03:17:45;14.50;99.90
13673;DHT22;6909;52.202;9.876;2022-09-09T03:20:13;14.50;99.90
13673;DHT22;6909;52.202;9.876;2022-09-09T03:22:40;14.50;99.90
13673;DHT22;6909;52.202;9.876;2022-09-09T03:25:08;14.60;99.90
13673;DHT22;6909;52.202;9.876;2022-09-09T03:27:34;14.70;99.90
13673;DHT22;6909;52.202;9.876;2022-09-09T03:30:01;14.90;99.90
13673;DHT22;6909;52.202;9.876;2022-09-09T03:32:29;14.90;99.90
13673;DHT22;6909;52.202;9.876;2022-09-09T03:34:56;15.00;99.90
13673;DHT22;6909;52.202;9.876;2022-09-09T03:37:24;15.00;99.90
13673;DHT22;6909;52.202;9.876;2022-09-09T03:39:51;15.00;99.90
13673;DHT22;6909;52.202;9.876;2022-09-09T03:42:20;14.90;99.90
13673;DHT22;6909;52.202;9.876;2022-09-09T03:44:46;14.90;99.90
13673;DHT22;6909;52.202;9.876;2022-09-09T03:47:16;14.80;99.90
13673;DHT22;6909;52.202;9.876;2022-09-09T03:49:42;14.80;99.90
13673;DHT22;6909;52.202;9.876;2022-09-09T03:52:09;14.80;99.90
13673;DHT22;6909;52.202;9.876;2022-09-09T03:54:37;14.70;99.90
13673;DHT22;6909;52.202;9.876;2022-09-09T03:57:04;14.70;99.90
13673;DHT22;6909;52.202;9.876;2022-09-09T03:59:31;14.80;99.90
13673;DHT22;6909;52.202;9.876;2022-09-09T04:01:58;14.80;99.90
13673;DHT22;6909;52.202;9.876;2022-09-09T04:04:25;14.80;99.90
13673;DHT22;6909;52.202;9.876;2022-09-09T04:06:52;14.90;99.90
13673;DHT22;6909;52.202;9.876;2022-09-09T04:09:19;14.90;99.90
13673;DHT22;6909;52.202;9.876;2022-09-09T04:11:47;14.90;99.90
13673;DHT22;6909;52.202;9.876;2022-09-09T04:14:15;14.90;99.90
13673;DHT22;6909;52.202;9.876;2022-09-09T04:16:41;15.00;99.90
13673;DHT22;6909;52.202;9.876;2022-09-09T04:19:10;15.00;99.90
13673;DHT22;6909;52.202;9.876;2022-09-09T04:21:37;15.00;99.90
13673;DHT22;6909;52.202;9.876;2022-09-09T04:24:05;15.10;99.90
13673;DHT22;6909;52.202;9.876;2022-09-09T04:26:32;15.10;99.90
13673;DHT22;6909;52.202;9.876;2022-09-09T04:29:00;15.20;99.90
13673;DHT22;6909;52.202;9.876;2022-09-09T04:31:26;15.20;99.90
13673;DHT22;6909;52.202;9.876;2022-09-09T04:33:53;15.20;99.90
13673;DHT22;6909;52.202;9.876;2022-09-09T04:36:20;15.10;99.90
13673;DHT22;6909;52.202;9.876;2022-09-09T04:38:47;15.00;99.90
13673;DHT22;6909;52.202;9.876;2022-09-09T04:41:14;15.00;99.90
13673;DHT22;6909;52.202;9.876;2022-09-09T04:43:42;14.90;99.90
13673;DHT22;6909;52.202;9.876;2022-09-09T04:46:10;14.90;99.90
13673;DHT22;6909;52.202;9.876;2022-09-09T04:48:38;14.80;99.90
13673;DHT22;6909;52.202;9.876;2022-09-09T04:51:08;14.70;99.90
13673;DHT22;6909;52.202;9.876;2022-09-09T04:53:35;14.70;99.90
13673;DHT22;6909;52.202;9.876;2022-09-09T04:56:04;14.70;99.90
13673;DHT22;6909;52.202;9.876;2022-09-09T04:58:31;14.70;99.90
13673;DHT22;6909;52.202;9.876;2022-09-09T05:01:06;14.80;99.90
13673;DHT22;6909;52.202;9.876;2022-09-09T05:03:34;14.80;99.90
13673;DHT22;6909;52.202;9.876;2022-09-09T05:06:05;14.80;99.90
13673;DHT22;6909;52.202;9.876;2022-09-09T05:08:32;14.80;99.90
13673;DHT22;6909;52.202;9.876;2022-09-09T05:10:59;14.90;99.90
13673;DHT22;6909;52.202;9.876;2022-09-09T05:13:26;14.90;99.90
13673;DHT22;6909;52.202;9.876;2022-09-09T05:15:53;14.90;99.90
13673;DHT22;6909;52.202;9.876;2022-09-09T05:18:20;14.90;99.90
13673;DHT22;6909;52.202;9.876;2022-09-09T05:20:49;14.90;99.90
13673;DHT22;6909;52.202;9.876;2022-09-09T05:23:16;14.90;99.90
13673;DHT22;6909;52.202;9.876;2022-09-09T05:25:43;15.00;99.90
13673;DHT22;6909;52.202;9.876;2022-09-09T05:28:12;15.00;99.90
13673;DHT22;6909;52.202;9.876;2022-09-09T05:30:38;15.10;99.90
13673;DHT22;6909;52.202;9.876;2022-09-09T05:33:05;15.20;99.90
13673;DHT22;6909;52.202;9.876;2022-09-09T05:35:32;15.30;99.90
13673;DHT22;6909;52.202;9.876;2022-09-09T05:38:00;15.30;99.90
13673;DHT22;6909;52.202;9.876;2022-09-09T05:40:27;15.50;99.90
13673;DHT22;6909;52.202;9.876;2022-09-09T05:42:54;15.60;99.90
13673;DHT22;6909;52.202;9.876;2022-09-09T05:45:23;15.70;99.90
13673;DHT22;6909;52.202;9.876;2022-09-09T05:47:52;15.80;99.90
13673;DHT22;6909;52.202;9.876;2022-09-09T05:50:19;15.90;99.90
13673;DHT22;6909;52.202;9.876;2022-09-09T05:52:45;16.00;99.90
13673;DHT22;6909;52.202;9.876;2022-09-09T05:55:15;16.10;99.90
13673;DHT22;6909;52.202;9.876;2022-09-09T05:57:41;16.20;99.90
13673;DHT22;6909;52.202;9.876;2022-09-09T06:00:09;16.30;99.90
13673;DHT22;6909;52.202;9.876;2022-09-09T06:02:37;16.40;99.90
13673;DHT22;6909;52.202;9.876;2022-09-09T06:05:05;17.00;99.90
13673;DHT22;6909;52.202;9.876;2022-09-09T06:07:31;17.40;99.90
13673;DHT22;6909;52.202;9.876;2022-09-09T06:09:58;17.30;99.90
13673;DHT22;6909;52.202;9.876;2022-09-09T06:12:26;17.00;99.90
13673;DHT22;6909;52.202;9.876;2022-09-09T06:14:53;16.80;99.90
13673;DHT22;6909;52.202;9.876;2022-09-09T06:17:20;16.80;99.90
13673;DHT22;6909;52.202;9.876;2022-09-09T06:19:46;16.70;99.90
13673;DHT22;6909;52.202;9.876;2022-09-09T06:22:13;16.80;99.90
13673;DHT22;6909;52.202;9.876;2022-09-09T06:24:40;17.20;99.90
13673;DHT22;6909;52.202;9.876;2022-09-09T06:27:06;18.50;99.90
13673;DHT22;6909;52.202;9.876;2022-09-09T06:29:34;19.80;99.90
13673;DHT22;6909;52.202;9.876;2022-09-09T06:32:01;20.90;99.90
13673;DHT22;6909;52.202;9.876;2022-09-09T06:34:28;21.60;99.90
13673;DHT22;6909;52.202;9.876;2022-09-09T06:36:55;22.80;99.90
13673;DHT22;6909;52.202;9.876;2022-09-09T06:39:23;24.00;99.90
13673;DHT22;6909;52.202;9.876;2022-09-09T06:41:51;24.40;99.90
13673;DHT22;6909;52.202;9.876;2022-09-09T06:44:18;25.30;99.90
13673;DHT22;6909;52.202;9.876;2022-09-09T06:46:46;25.20;99.90
13673;DHT22;6909;52.202;9.876;2022-09-09T06:49:13;24.30;99.90
13673;DHT22;6909;52.202;9.876;2022-09-09T06:51:40;24.20;99.90
13673;DHT22;6909;52.202;9.876;2022-09-09T06:54:08;23.70;99.90
13673;DHT22;6909;52.202;9.876;2022-09-09T06:56:36;24.30;99.90
13673;DHT22;6909;52.202;9.876;2022-09-09T06:59:07;25.60;99.90
13673;DHT22;6909;52.202;9.876;2022-09-09T07:01:36;25.90;99.90
13673;DHT22;6909;52.202;9.876;2022-09-09T07:04:04;25.90;99.90
13673;DHT22;6909;52.202;9.876;2022-09-09T07:06:34;26.70;99.90
13673;DHT22;6909;52.202;9.876;2022-09-09T07:09:03;26.90;99.90
13673;DHT22;6909;52.202;9.876;2022-09-09T07:11:32;27.00;99.90
13673;DHT22;6909;52.202;9.876;2022-09-09T07:14:00;26.70;99.90
13673;DHT22;6909;52.202;9.876;2022-09-09T07:16:27;26.90;99.90
13673;DHT22;6909;52.202;9.876;2022-09-09T07:18:55;26.60;99.90
13673;DHT22;6909;52.202;9.876;2022-09-09T07:21:25;26.70;99.90
13673;DHT22;6909;52.202;9.876;2022-09-09T07:23:53;26.90;99.90
13673;DHT22;6909;52.202;9.876;2022-09-09T07:26:21;26.30;1.00
13673;DHT22;6909;52.202;9.876;2022-09-09T07:28:49;25.90;1.00
13673;DHT22;6909;52.202;9.876;2022-09-09T07:31:17;25.90;1.00
13673;DHT22;6909;52.202;9.876;2022-09-09T07:33:45;26.00;1.00
13673;DHT22;6909;52.202;9.876;2022-09-09T07:36:13;26.40;99.90
13673;DHT22;6909;52.202;9.876;2022-09-09T07:38:42;26.70;1.00
13673;DHT22;6909;52.202;9.876;2022-09-09T07:41:11;26.80;1.00
13673;DHT22;6909;52.202;9.876;2022-09-09T07:43:38;26.20;99.90
13673;DHT22;6909;52.202;9.876;2022-09-09T07:46:07;26.30;1.00
13673;DHT22;6909;52.202;9.876;2022-09-09T07:48:34;25.60;99.90
13673;DHT22;6909;52.202;9.876;2022-09-09T07:51:06;24.90;1.00
13673;DHT22;6909;52.202;9.876;2022-09-09T07:53:33;25.70;1.00
13673;DHT22;6909;52.202;9.876;2022-09-09T07:56:08;25.70;1.00
13673;DHT22;6909;52.202;9.876;2022-09-09T07:58:35;24.50;7.20
13673;DHT22;6909;52.202;9.876;2022-09-09T08:01:07;23.60;1.00
13673;DHT22;6909;52.202;9.876;2022-09-09T08:03:34;22.70;1.00
13673;DHT22;6909;52.202;9.876;2022-09-09T08:06:02;22.40;99.90
13673;DHT22;6909;52.202;9.876;2022-09-09T08:08:29;22.20;99.90
13673;DHT22;6909;52.202;9.876;2022-09-09T08:11:03;22.40;99.90
13673;DHT22;6909;52.202;9.876;2022-09-09T08:13:33;22.50;99.90
13673;DHT22;6909;52.202;9.876;2022-09-09T08:16:07;22.60;99.90
13673;DHT22;6909;52.202;9.876;2022-09-09T08:18:34;22.20;99.90
13673;DHT22;6909;52.202;9.876;2022-09-09T08:21:10;21.80;98.50
13673;DHT22;6909;52.202;9.876;2022-09-09T08:23:38;21.90;85.50
13673;DHT22;6909;52.202;9.876;2022-09-09T08:26:09;21.70;1.00
13673;DHT22;6909;52.202;9.876;2022-09-09T08:28:37;21.40;1.00
13673;DHT22;6909;52.202;9.876;2022-09-09T08:31:10;21.60;1.00
13673;DHT22;6909;52.202;9.876;2022-09-09T08:33:37;21.30;1.00
13673;DHT22;6909;52.202;9.876;2022-09-09T08:36:05;21.50;1.00
13673;DHT22;6909;52.202;9.876;2022-09-09T08:38:32;21.60;1.00
13673;DHT22;6909;52.202;9.876;2022-09-09T08:41:07;21.30;1.00
13673;DHT22;6909;52.202;9.876;2022-09-09T08:43:38;21.10;1.00
13673;DHT22;6909;52.202;9.876;2022-09-09T08:46:11;21.40;1.00
13673;DHT22;6909;52.202;9.876;2022-09-09T08:48:48;21.40;1.00
13673;DHT22;6909;52.202;9.876;2022-09-09T08:51:20;21.90;1.00
13673;DHT22;6909;52.202;9.876;2022-09-09T08:53:49;22.50;1.00
13673;DHT22;6909;52.202;9.876;2022-09-09T08:56:21;22.50;1.00
13673;DHT22;6909;52.202;9.876;2022-09-09T08:58:50;22.50;1.00
13673;DHT22;6909;52.202;9.876;2022-09-09T09:01:38;22.60;1.00
13673;DHT22;6909;52.202;9.876;2022-09-09T09:04:14;22.50;1.00
13673;DHT22;6909;52.202;9.876;2022-09-09T09:06:50;22.30;1.00
13673;DHT22;6909;52.202;9.876;2022-09-09T09:09:24;21.80;1.00
13673;DHT22;6909;52.202;9.876;2022-09-09T09:11:55;21.70;1.00
13673;DHT22;6909;52.202;9.876;2022-09-09T09:14:28;21.70;1.00
13673;DHT22;6909;52.202;9.876;2022-09-09T09:16:58;21.70;1.00
13673;DHT22;6909;52.202;9.876;2022-09-09T09:19:26;21.50;1.00
13673;DHT22;6909;52.202;9.876;2022-09-09T09:21:58;21.30;1.00
13673;DHT22;6909;52.202;9.876;2022-09-09T09:24:34;21.60;1.00
13673;DHT22;6909;52.202;9.876;2022-09-09T09:27:12;21.60;99.90
13673;DHT22;6909;52.202;9.876;2022-09-09T09:29:41;22.20;1.00
13673;DHT22;6909;52.202;9.876;2022-09-09T09:32:11;22.70;1.00
13673;DHT22;6909;52.202;9.876;2022-09-09T09:34:39;22.80;1.00
13673;DHT22;6909;52.202;9.876;2022-09-09T09:37:14;22.60;99.90
13673;DHT22;6909;52.202;9.876;2022-09-09T09:39:45;22.40;99.90
13673;DHT22;6909;52.202;9.876;2022-09-09T09:42:14;22.50;99.90
13673;DHT22;6909;52.202;9.876;2022-09-09T09:44:44;21.90;99.90
13673;DHT22;6909;52.202;9.876;2022-09-09T09:47:12;21.70;99.90
13673;DHT22;6909;52.202;9.876;2022-09-09T09:49:40;21.90;99.90
13673;DHT22;6909;52.202;9.876;2022-09-09T09:52:21;21.70;99.90
13673;DHT22;6909;52.202;9.876;2022-09-09T09:54:49;21.60;99.90
13673;DHT22;6909;52.202;9.876;2022-09-09T09:57:17;21.60;99.90
13673;DHT22;6909;52.202;9.876;2022-09-09T09:59:45;21.70;99.90
13673;DHT22;6909;52.202;9.876;2022-09-09T10:02:15;21.70;99.90
13673;DHT22;6909;52.202;9.876;2022-09-09T10:04:43;21.80;99.90
13673;DHT22;6909;52.202;9.876;2022-09-09T10:07:11;21.60;99.90
13673;DHT22;6909;52.202;9.876;2022-09-09T10:09:38;21.40;79.50
13673;DHT22;6909;52.202;9.876;2022-09-09T10:12:13;21.30;64.80
13673;DHT22;6909;52.202;9.876;2022-09-09T10:14:52;21.30;91.60
13673;DHT22;6909;52.202;9.876;2022-09-09T10:17:27;21.10;99.90
13673;DHT22;6909;52.202;9.876;2022-09-09T10:20:06;21.30;99.90
13673;DHT22;6909;52.202;9.876;2022-09-09T10:22:45;21.50;99.90
13673;DHT22;6909;52.202;9.876;2022-09-09T10:25:34;21.70;99.90
13673;DHT22;6909;52.202;9.876;2022-09-09T10:28:33;22.10;99.90
13673;DHT22;6909;52.202;9.876;2022-09-09T10:31:15;22.60;99.90
13673;DHT22;6909;52.202;9.876;2022-09-09T10:33:51;22.90;99.90
13673;DHT22;6909;52.202;9.876;2022-09-09T10:36:22;23.00;59.10
13673;DHT22;6909;52.202;9.876;2022-09-09T10:38:54;22.80;1.00
13673;DHT22;6909;52.202;9.876;2022-09-09T10:41:40;22.60;1.00
13673;DHT22;6909;52.202;9.876;2022-09-09T10:44:23;22.60;1.00
13673;DHT22;6909;52.202;9.876;2022-09-09T10:47:07;23.10;1.00
13673;DHT22;6909;52.202;9.876;2022-09-09T10:50:04;22.70;1.00
13673;DHT22;6909;52.202;9.876;2022-09-09T10:52:52;22.60;1.00
13673;DHT22;6909;52.202;9.876;2022-09-09T10:55:27;22.60;1.00
13673;DHT22;6909;52.202;9.876;2022-09-09T10:57:58;22.40;1.00
13673;DHT22;6909;52.202;9.876;2022-09-09T11:00:29;22.50;1.00
13673;DHT22;6909;52.202;9.876;2022-09-09T11:03:01;22.40;1.00
13673;DHT22;6909;52.202;9.876;2022-09-09T11:05:31;22.30;1.00
13673;DHT22;6909;52.202;9.876;2022-09-09T11:08:03;22.30;1.00
13673;DHT22;6909;52.202;9.876;2022-09-09T11:10:38;22.30;1.00
13673;DHT22;6909;52.202;9.876;2022-09-09T11:13:14;21.90;1.00
13673;DHT22;6909;52.202;9.876;2022-09-09T11:15:45;21.80;1.00
13673;DHT22;6909;52.202;9.876;2022-09-09T11:18:19;21.60;1.00
13673;DHT22;6909;52.202;9.876;2022-09-09T11:20:47;21.20;1.00
13673;DHT22;6909;52.202;9.876;2022-09-09T11:23:18;21.10;1.00
13673;DHT22;6909;52.202;9.876;2022-09-09T11:25:51;21.10;1.00
13673;DHT22;6909;52.202;9.876;2022-09-09T11:28:40;21.20;1.00
13673;DHT22;6909;52.202;9.876;2022-09-09T11:31:27;21.30;1.00
13673;DHT22;6909;52.202;9.876;2022-09-09T11:34:12;21.30;1.00
13673;DHT22;6909;52.202;9.876;2022-09-09T11:36:50;21.30;1.00
13673;DHT22;6909;52.202;9.876;2022-09-09T11:39:43;21.20;1.00
13673;DHT22;6909;52.202;9.876;2022-09-09T11:42:18;21.00;1.00
13673;DHT22;6909;52.202;9.876;2022-09-09T11:44:45;20.30;1.00
13673;DHT22;6909;52.202;9.876;2022-09-09T11:47:24;19.60;1.00
13673;DHT22;6909;52.202;9.876;2022-09-09T11:50:06;19.40;1.00
13673;DHT22;6909;52.202;9.876;2022-09-09T11:52:37;19.20;99.90
13673;DHT22;6909;52.202;9.876;2022-09-09T11:55:10;19.30;52.70
13673;DHT22;6909;52.202;9.876;2022-09-09T11:57:38;19.30;56.70
13673;DHT22;6909;52.202;9.876;2022-09-09T12:00:06;19.20;99.90
13673;DHT22;6909;52.202;9.876;2022-09-09T12:02:33;19.30;99.90
13673;DHT22;6909;52.202;9.876;2022-09-09T12:05:06;19.40;99.90
13673;DHT22;6909;52.202;9.876;2022-09-09T12:07:36;19.40;99.90
13673;DHT22;6909;52.202;9.876;2022-09-09T12:10:18;19.50;27.80
13673;DHT22;6909;52.202;9.876;2022-09-09T12:12:46;19.40;99.90
13673;DHT22;6909;52.202;9.876;2022-09-09T12:15:25;19.50;99.90
13673;DHT22;6909;52.202;9.876;2022-09-09T12:17:55;19.50;99.90
13673;DHT22;6909;52.202;9.876;2022-09-09T12:20:30;19.50;99.90
13673;DHT22;6909;52.202;9.876;2022-09-09T12:23:10;19.50;99.90
13673;DHT22;6909;52.202;9.876;2022-09-09T12:25:57;19.50;44.60
13673;DHT22;6909;52.202;9.876;2022-09-09T12:28:31;19.40;99.90
13673;DHT22;6909;52.202;9.876;2022-09-09T12:31:07;19.50;99.90
13673;DHT22;6909;52.202;9.876;2022-09-09T12:33:37;19.40;99.90
13673;DHT22;6909;52.202;9.876;2022-09-09T12:36:10;19.40;99.90
13673;DHT22;6909;52.202;9.876;2022-09-09T12:38:40;19.40;99.90
13673;DHT22;6909;52.202;9.876;2022-09-09T12:41:19;19.40;99.90
13673;DHT22;6909;52.202;9.876;2022-09-09T12:43:46;19.40;99.90
13673;DHT22;6909;52.202;9.876;2022-09-09T12:46:22;19.30;99.90
13673;DHT22;6909;52.202;9.876;2022-09-09T12:48:52;19.40;99.90
13673;DHT22;6909;52.202;9.876;2022-09-09T12:51:25;19.40;1.00
13673;DHT22;6909;52.202;9.876;2022-09-09T12:53:53;19.40;1.00
13673;DHT22;6909;52.202;9.876;2022-09-09T12:56:22;19.30;1.00
13673;DHT22;6909;52.202;9.876;2022-09-09T12:58:51;19.30;1.00
13673;DHT22;6909;52.202;9.876;2022-09-09T13:01:21;19.30;1.00
13673;DHT22;6909;52.202;9.876;2022-09-09T13:03:48;19.30;1.00
13673;DHT22;6909;52.202;9.876;2022-09-09T13:06:21;19.30;1.00
13673;DHT22;6909;52.202;9.876;2022-09-09T13:08:49;19.30;1.00
13673;DHT22;6909;52.202;9.876;2022-09-09T13:11:18;19.30;99.90
13673;DHT22;6909;52.202;9.876;2022-09-09T13:13:52;19.30;1.00
13673;DHT22;6909;52.202;9.876;2022-09-09T13:16:21;19.30;99.90
13673;DHT22;6909;52.202;9.876;2022-09-09T13:18:49;19.30;99.90
13673;DHT22;6909;52.202;9.876;2022-09-09T13:21:16;19.30;99.90
13673;DHT22;6909;52.202;9.876;2022-09-09T13:23:49;19.50;99.90
13673;DHT22;6909;52.202;9.876;2022-09-09T13:26:22;19.50;99.90
13673;DHT22;6909;52.202;9.876;2022-09-09T13:28:49;19.50;99.90
13673;DHT22;6909;52.202;9.876;2022-09-09T13:31:21;19.60;99.90
13673;DHT22;6909;52.202;9.876;2022-09-09T13:33:48;19.60;99.90
13673;DHT22;6909;52.202;9.876;2022-09-09T13:36:14;19.80;99.90
13673;DHT22;6909;52.202;9.876;2022-09-09T13:38:55;20.00;99.90
13673;DHT22;6909;52.202;9.876;2022-09-09T13:41:27;20.30;99.90
13673;DHT22;6909;52.202;9.876;2022-09-09T13:43:56;20.70;30.10
13673;DHT22;6909;52.202;9.876;2022-09-09T13:46:26;21.00;1.00
13673;DHT22;6909;52.202;9.876;2022-09-09T13:48:56;21.10;1.00
13673;DHT22;6909;52.202;9.876;2022-09-09T13:51:30;21.40;1.00
13673;DHT22;6909;52.202;9.876;2022-09-09T13:53:59;21.40;1.00
13673;DHT22;6909;52.202;9.876;2022-09-09T13:56:26;21.50;1.00
13673;DHT22;6909;52.202;9.876;2022-09-09T13:58:53;21.60;1.00
13673;DHT22;6909;52.202;9.876;2022-09-09T14:01:20;21.60;1.00
13673;DHT22;6909;52.202;9.876;2022-09-09T14:03:46;21.40;1.00
13673;DHT22;6909;52.202;9.876;2022-09-09T14:06:13;21.30;1.00
13673;DHT22;6909;52.202;9.876;2022-09-09T14:08:39;21.20;1.00
13673;DHT22;6909;52.202;9.876;2022-09-09T14:11:12;21.20;1.00
13673;DHT22;6909;52.202;9.876;2022-09-09T14:13:39;21.10;1.00
13673;DHT22;6909;52.202;9.876;2022-09-09T14:16:06;21.10;1.00
13673;DHT22;6909;52.202;9.876;2022-09-09T14:18:32;21.10;1.00
13673;DHT22;6909;52.202;9.876;2022-09-09T14:20:59;20.90;1.00
13673;DHT22;6909;52.202;9.876;2022-09-09T14:23:28;21.00;1.00
13673;DHT22;6909;52.202;9.876;2022-09-09T14:25:55;21.20;1.00
13673;DHT22;6909;52.202;9.876;2022-09-09T14:28:23;21.30;1.00
13673;DHT22;6909;52.202;9.876;2022-09-09T14:30:50;21.20;1.00
13673;DHT22;6909;52.202;9.876;2022-09-09T14:33:17;21.10;1.00
13673;DHT22;6909;52.202;9.876;2022-09-09T14:35:44;20.90;1.00
13673;DHT22;6909;52.202;9.876;2022-09-09T14:38:10;20.80;1.00
13673;DHT22;6909;52.202;9.876;2022-09-09T14:40:38;20.60;1.00
13673;DHT22;6909;52.202;9.876;2022-09-09T14:43:05;20.60;1.00
13673;DHT22;6909;52.202;9.876;2022-09-09T14:45:35;20.70;1.00
13673;DHT22;6909;52.202;9.876;2022-09-09T14:48:03;20.80;1.00
13673;DHT22;6909;52.202;9.876;2022-09-09T14:50:30;21.10;1.00
13673;DHT22;6909;52.202;9.876;2022-09-09T14:52:56;21.40;1.00
13673;DHT22;6909;52.202;9.876;2022-09-09T14:55:23;21.70;1.00
13673;DHT22;6909;52.202;9.876;2022-09-09T14:57:49;21.70;1.00
13673;DHT22;6909;52.202;9.876;2022-09-09T15:00:16;21.70;1.00
13673;DHT22;6909;52.202;9.876;2022-09-09T15:02:44;21.80;1.00
13673;DHT22;6909;52.202;9.876;2022-09-09T15:05:11;21.70;1.00
13673;DHT22;6909;52.202;9.876;2022-09-09T15:07:37;21.70;1.00
13673;DHT22;6909;52.202;9.876;2022-09-09T15:10:05;21.60;1.00
13673;DHT22;6909;52.202;9.876;2022-09-09T15:12:32;21.40;1.00
13673;DHT22;6909;52.202;9.876;2022-09-09T15:15:00;21.30;1.00
13673;DHT22;6909;52.202;9.876;2022-09-09T15:17:27;21.20;1.00
13673;DHT22;6909;52.202;9.876;2022-09-09T15:19:55;21.20;1.00
13673;DHT22;6909;52.202;9.876;2022-09-09T15:22:22;21.40;1.00
13673;DHT22;6909;52.202;9.876;2022-09-09T15:24:49;21.50;1.00
13673;DHT22;6909;52.202;9.876;2022-09-09T15:27:16;21.50;1.00
13673;DHT22;6909;52.202;9.876;2022-09-09T15:29:43;21.60;1.00
13673;DHT22;6909;52.202;9.876;2022-09-09T15:32:10;21.60;99.90
13673;DHT22;6909;52.202;9.876;2022-09-09T15:34:37;21.60;99.90
13673;DHT22;6909;52.202;9.876;2022-09-09T15:37:05;21.50;99.90
13673;DHT22;6909;52.202;9.876;2022-09-09T15:39:33;21.40;99.90
13673;DHT22;6909;52.202;9.876;2022-09-09T15:41:59;21.40;99.90
13673;DHT22;6909;52.202;9.876;2022-09-09T15:44:27;21.30;99.90
13673;DHT22;6909;52.202;9.876;2022-09-09T15:46:53;21.20;99.90
13673;DHT22;6909;52.202;9.876;2022-09-09T15:49:21;21.20;99.90
13673;DHT22;6909;52.202;9.876;2022-09-09T15:51:51;21.20;99.90
13673;DHT22;6909;52.202;9.876;2022-09-09T15:54:21;21.10;99.90
13673;DHT22;6909;52.202;9.876;2022-09-09T15:56:51;21.00;99.90
13673;DHT22;6909;52.202;9.876;2022-09-09T15:59:18;20.80;99.90
13673;DHT22;6909;52.202;9.876;2022-09-09T16:01:44;20.80;99.90
13673;DHT22;6909;52.202;9.876;2022-09-09T16:04:11;20.80;99.90
13673;DHT22;6909;52.202;9.876;2022-09-09T16:06:38;20.80;99.90
13673;DHT22;6909;52.202;9.876;2022-09-09T16:09:06;20.90;99.90
13673;DHT22;6909;52.202;9.876;2022-09-09T16:11:36;20.90;99.90